Wetterstation Vordersexau
Wetterdaten: Woche 12.03.12 - 18.03.12 (KW11)
Datum Zeit Temp. A. Feuchte A. Luftdruck Regen Wind Richtung Taupunkt Windchill Windben
12.03.2012 00:00 6,4 C 82 % 1030,2 hPa 0,0 l/m 0,0 km/h O-NO 3,6 C 6,4 C 0,0 km/h
12.03.2012 01:00 6,1 C 83 % 1030,3 hPa 0,0 l/m 0,0 km/h NO 3,4 C 6,1 C 0,0 km/h
12.03.2012 02:00 6,2 C 83 % 1029,9 hPa 0,0 l/m 0,0 km/h NO 3,5 C 6,2 C 0,0 km/h
12.03.2012 03:00 6,3 C 84 % 1029,5 hPa 0,0 l/m 0,0 km/h SO 3,8 C 6,3 C 0,0 km/h
12.03.2012 04:00 5,6 C 84 % 1029,2 hPa 0,0 l/m 1,3 km/h O-NO 3,1 C 5,6 C 0,7 km/h
12.03.2012 05:00 5,6 C 84 % 1029,0 hPa 0,0 l/m 0,0 km/h O 3,1 C 5,6 C 0,0 km/h
12.03.2012 06:00 4,9 C 85 % 1029,0 hPa 0,0 l/m 0,0 km/h NO 2,6 C 4,9 C 0,0 km/h
12.03.2012 07:00 5,4 C 85 % 1029,1 hPa 0,0 l/m 0,0 km/h O-SO 3,1 C 5,4 C 0,0 km/h
12.03.2012 08:00 6,4 C 85 % 1029,3 hPa 0,0 l/m 0,0 km/h S-SW 4,1 C 6,4 C 0,0 km/h
12.03.2012 09:00 12,9 C 70 % 1029,3 hPa 0,0 l/m 0,0 km/h W 7,6 C 12,9 C 0,0 km/h
12.03.2012 10:00 17,3 C 55 % 1029,4 hPa 0,0 l/m 1,9 km/h N-NO 8,2 C 17,3 C 1,1 km/h
12.03.2012 11:00 18,8 C 51 % 1028,9 hPa 0,0 l/m 0,0 km/h W 8,4 C 18,8 C 0,0 km/h
12.03.2012 12:00 18,0 C 49 % 1028,5 hPa 0,0 l/m 1,9 km/h N-NW 7,1 C 18,0 C 1,1 km/h
12.03.2012 13:00 18,0 C 51 % 1027,9 hPa 0,0 l/m 12,3 km/h W 7,7 C 15,6 C 6,8 km/h
12.03.2012 14:00 19,7 C 46 % 1027,3 hPa 0,0 l/m 18,8 km/h N-NW 7,8 C 16,1 C 10,4 km/h
12.03.2012 15:00 17,9 C 46 % 1027,4 hPa 0,0 l/m 0,0 km/h N 6,1 C 17,9 C 0,0 km/h
12.03.2012 16:00 21,4 C 39 % 1027,3 hPa 0,0 l/m 0,0 km/h N-NO 6,9 C 21,4 C 0,0 km/h
12.03.2012 17:00 19,3 C 42 % 1027,5 hPa 0,0 l/m 16,8 km/h N 6,1 C 16,0 C 9,4 km/h
12.03.2012 18:00 13,1 C 54 % 1027,7 hPa 0,0 l/m 0,0 km/h N-NO 4,0 C 13,1 C 0,0 km/h
12.03.2012 19:00 8,9 C 68 % 1028,0 hPa 0,0 l/m 0,0 km/h O-NO 3,3 C 8,9 C 0,0 km/h
12.03.2012 20:00 8,0 C 75 % 1028,1 hPa 0,0 l/m 0,0 km/h O-SO 3,8 C 8,0 C 0,0 km/h
12.03.2012 21:00 7,2 C 79 % 1028,1 hPa 0,0 l/m 16,2 km/h SO 3,8 C 1,2 C 9,0 km/h
12.03.2012 22:00 6,4 C 81 % 1028,5 hPa 0,0 l/m 24,6 km/h O-SO 3,4 C -2,9 C 13,7 km/h
12.03.2012 23:00 5,7 C 82 % 1028,5 hPa 0,0 l/m 1,3 km/h NO 2,9 C 5,7 C 0,7 km/h
13.03.2012 00:00 4,6 C 83 % 1028,5 hPa 0,0 l/m 0,0 km/h N-NO 2,0 C 4,6 C 0,0 km/h
13.03.2012 01:00 3,6 C 85 % 1028,7 hPa 0,0 l/m 0,0 km/h NO 1,3 C 3,6 C 0,0 km/h
13.03.2012 02:00 3,5 C 85 % 1028,6 hPa 0,0 l/m 0,0 km/h N 1,2 C 3,5 C 0,0 km/h
13.03.2012 03:00 2,5 C 86 % 1028,5 hPa 0,0 l/m 0,0 km/h NO 0,4 C 2,5 C 0,0 km/h
13.03.2012 04:00 1,8 C 86 % 1028,1 hPa 0,0 l/m 0,0 km/h SO -0,3 C 1,8 C 0,0 km/h
13.03.2012 05:00 0,5 C 86 % 1028,4 hPa 0,0 l/m 0,0 km/h S-SO -1,6 C 0,5 C 0,0 km/h
13.03.2012 06:00 2,8 C 85 % 1028,6 hPa 0,0 l/m 0,0 km/h O-NO 0,5 C 2,8 C 0,0 km/h
13.03.2012 07:00 3,3 C 84 % 1029,0 hPa 0,0 l/m 0,0 km/h NO 0,9 C 3,3 C 0,0 km/h
13.03.2012 08:00 4,6 C 83 % 1029,4 hPa 0,0 l/m 0,0 km/h N-NO 2,0 C 4,6 C 0,0 km/h
13.03.2012 09:00 6,2 C 85 % 1029,1 hPa 0,0 l/m 0,0 km/h NW 3,9 C 6,2 C 0,0 km/h
13.03.2012 10:00 9,8 C 80 % 1029,2 hPa 0,0 l/m 3,2 km/h S 6,5 C 9,8 C 1,8 km/h
13.03.2012 11:00 14,1 C 70 % 1029,1 hPa 0,0 l/m 4,5 km/h W 8,7 C 14,1 C 2,5 km/h
13.03.2012 12:00 16,3 C 60 % 1028,5 hPa 0,0 l/m 3,2 km/h W 8,5 C 16,3 C 1,8 km/h
13.03.2012 13:00 17,2 C 57 % 1027,6 hPa 0,0 l/m 5,8 km/h W-NW 8,6 C 17,2 C 3,2 km/h
13.03.2012 14:00 18,5 C 52 % 1027,0 hPa 0,0 l/m 4,5 km/h W 8,5 C 18,5 C 2,5 km/h
13.03.2012 15:00 20,4 C 45 % 1026,8 hPa 0,0 l/m 13,6 km/h N 8,1 C 18,1 C 7,6 km/h
13.03.2012 16:00 20,2 C 45 % 1026,5 hPa 0,0 l/m 4,5 km/h NW 7,9 C 20,2 C 2,5 km/h
13.03.2012 17:00 18,7 C 48 % 1026,5 hPa 0,0 l/m 1,9 km/h NW 7,5 C 18,7 C 1,1 km/h
13.03.2012 18:00 11,6 C 63 % 1026,8 hPa 0,0 l/m 0,0 km/h W-NW 4,8 C 11,6 C 0,0 km/h
13.03.2012 19:00 7,5 C 74 % 1027,3 hPa 0,0 l/m 0,0 km/h W-NW 3,2 C 7,5 C 0,0 km/h
13.03.2012 20:00 5,8 C 81 % 1027,7 hPa 0,0 l/m 0,0 km/h O-SO 2,8 C 5,8 C 0,0 km/h
13.03.2012 21:00 4,8 C 84 % 1027,6 hPa 0,0 l/m 0,0 km/h NO 2,3 C 4,8 C 0,0 km/h
13.03.2012 22:00 3,8 C 85 % 1027,7 hPa 0,0 l/m 0,0 km/h NO 1,5 C 3,8 C 0,0 km/h
13.03.2012 23:00 2,9 C 85 % 1028,1 hPa 0,0 l/m 0,0 km/h NO 0,6 C 2,9 C 0,0 km/h
14.03.2012 00:00 1,8 C 86 % 1028,0 hPa 0,0 l/m 0,0 km/h N-NO -0,3 C 1,8 C 0,0 km/h
14.03.2012 01:00 1,5 C 85 % 1028,2 hPa 0,0 l/m 0,0 km/h N-NO -0,7 C 1,5 C 0,0 km/h
14.03.2012 02:00 0,8 C 86 % 1028,3 hPa 0,0 l/m 0,0 km/h N-NO -1,3 C 0,8 C 0,0 km/h
14.03.2012 03:00 0,4 C 86 % 1028,0 hPa 0,0 l/m 0,0 km/h N-NO -1,7 C 0,4 C 0,0 km/h
14.03.2012 04:00 -0,1 C 86 % 1027,7 hPa 0,0 l/m 0,0 km/h O-NO -2,2 C -0,1 C 0,0 km/h
14.03.2012 05:00 0,2 C 85 % 1027,7 hPa 0,0 l/m 0,0 km/h N-NO -2,0 C 0,2 C 0,0 km/h
14.03.2012 06:00 1,4 C 85 % 1027,9 hPa 0,0 l/m 0,0 km/h O-NO -0,8 C 1,4 C 0,0 km/h
14.03.2012 07:00 2,3 C 84 % 1027,8 hPa 0,0 l/m 0,0 km/h NO -0,1 C 2,3 C 0,0 km/h
14.03.2012 08:00 3,6 C 83 % 1028,1 hPa 0,0 l/m 0,0 km/h S-SW 1,0 C 3,6 C 0,0 km/h
14.03.2012 09:00 5,9 C 81 % 1027,9 hPa 0,0 l/m 0,0 km/h SW 2,9 C 5,9 C 0,0 km/h
14.03.2012 10:00 8,8 C 84 % 1027,9 hPa 0,0 l/m 0,0 km/h NW 6,2 C 8,8 C 0,0 km/h
14.03.2012 11:00 14,4 C 63 % 1028,0 hPa 0,0 l/m 11,0 km/h W 7,4 C 12,0 C 6,1 km/h
14.03.2012 12:00 15,8 C 58 % 1027,5 hPa 0,0 l/m 2,6 km/h NO 7,6 C 15,8 C 1,4 km/h
14.03.2012 13:00 16,4 C 56 % 1026,8 hPa 0,0 l/m 0,0 km/h W 7,6 C 16,4 C 0,0 km/h
14.03.2012 14:00 18,4 C 52 % 1026,1 hPa 0,0 l/m 2,6 km/h W 8,4 C 18,4 C 1,4 km/h
14.03.2012 15:00 20,6 C 47 % 1025,7 hPa 0,0 l/m 7,1 km/h W 8,9 C 20,3 C 4,0 km/h
14.03.2012 16:00 20,3 C 45 % 1025,1 hPa 0,0 l/m 0,0 km/h W-NW 8,0 C 20,3 C 0,0 km/h
14.03.2012 17:00 18,8 C 49 % 1025,2 hPa 0,0 l/m 1,9 km/h W-NW 7,9 C 18,8 C 1,1 km/h
14.03.2012 18:00 11,8 C 61 % 1025,9 hPa 0,0 l/m 0,0 km/h O-SO 4,5 C 11,8 C 0,0 km/h
14.03.2012 19:00 7,6 C 75 % 1026,3 hPa 0,0 l/m 0,0 km/h O-NO 3,5 C 7,6 C 0,0 km/h
14.03.2012 20:00 6,2 C 81 % 1026,8 hPa 0,0 l/m 0,0 km/h O-NO 3,2 C 6,2 C 0,0 km/h
14.03.2012 21:00 5,0 C 84 % 1027,0 hPa 0,0 l/m 0,0 km/h O-NO 2,5 C 5,0 C 0,0 km/h
14.03.2012 22:00 3,8 C 85 % 1027,3 hPa 0,0 l/m 0,0 km/h NO 1,5 C 3,8 C 0,0 km/h
14.03.2012 23:00 2,9 C 85 % 1027,6 hPa 0,0 l/m 0,0 km/h NO 0,6 C 2,9 C 0,0 km/h
15.03.2012 00:00 1,6 C 85 % 1027,8 hPa 0,0 l/m 0,0 km/h NO -0,6 C 1,6 C 0,0 km/h
15.03.2012 01:00 1,3 C 86 % 1027,8 hPa 0,0 l/m 0,0 km/h O-NO -0,8 C 1,3 C 0,0 km/h
15.03.2012 02:00 0,9 C 86 % 1027,5 hPa 0,0 l/m 0,0 km/h N-NO -1,2 C 0,9 C 0,0 km/h
15.03.2012 03:00 0,4 C 86 % 1027,4 hPa 0,0 l/m 0,0 km/h NO -1,7 C 0,4 C 0,0 km/h
15.03.2012 04:00 0,3 C 85 % 1027,2 hPa 0,0 l/m 0,0 km/h O-NO -1,9 C 0,3 C 0,0 km/h
15.03.2012 05:00 0,1 C 85 % 1027,0 hPa 0,0 l/m 0,0 km/h NO -2,1 C 0,1 C 0,0 km/h
15.03.2012 06:00 -0,5 C 85 % 1026,9 hPa 0,0 l/m 0,0 km/h O-SO -2,7 C -0,5 C 0,0 km/h
15.03.2012 07:00 0,1 C 85 % 1026,7 hPa 0,0 l/m 0,0 km/h O-SO -2,1 C 0,1 C 0,0 km/h
15.03.2012 08:00 4,5 C 77 % 1026,9 hPa 0,0 l/m 0,0 km/h W-NW 0,8 C 4,5 C 0,0 km/h
15.03.2012 09:00 9,8 C 80 % 1026,9 hPa 0,0 l/m 0,0 km/h N-NW 6,5 C 9,8 C 0,0 km/h
15.03.2012 10:00 14,5 C 64 % 1027,0 hPa 0,0 l/m 0,0 km/h W 7,8 C 14,5 C 0,0 km/h
15.03.2012 11:00 17,4 C 55 % 1026,7 hPa 0,0 l/m 3,2 km/h W-NW 8,3 C 17,4 C 1,8 km/h
15.03.2012 12:00 18,1 C 53 % 1026,2 hPa 0,0 l/m 2,6 km/h W 8,4 C 18,1 C 1,4 km/h
15.03.2012 13:00 18,1 C 52 % 1025,3 hPa 0,0 l/m 0,0 km/h S-SW 8,1 C 18,1 C 0,0 km/h
15.03.2012 14:00 22,1 C 46 % 1024,7 hPa 0,0 l/m 0,0 km/h N 9,9 C 22,1 C 0,0 km/h
15.03.2012 15:00 25,7 C 33 % 1024,1 hPa 0,0 l/m 0,0 km/h W-SW 8,2 C 25,7 C 0,0 km/h
15.03.2012 16:00 26,9 C 31 % 1024,0 hPa 0,0 l/m 6,5 km/h NW 8,3 C 26,9 C 3,6 km/h
15.03.2012 17:00 25,6 C 32 % 1023,5 hPa 0,0 l/m 0,0 km/h O 7,7 C 25,6 C 0,0 km/h
15.03.2012 18:00 15,5 C 52 % 1023,7 hPa 0,0 l/m 0,0 km/h O-SO 5,7 C 15,5 C 0,0 km/h
15.03.2012 19:00 10,8 C 66 % 1024,0 hPa 0,0 l/m 0,0 km/h NO 4,7 C 10,8 C 0,0 km/h
15.03.2012 20:00 8,6 C 75 % 1024,0 hPa 0,0 l/m 0,0 km/h O-NO 4,4 C 8,6 C 0,0 km/h
15.03.2012 21:00 7,3 C 79 % 1024,0 hPa 0,0 l/m 0,0 km/h O 3,9 C 7,3 C 0,0 km/h
15.03.2012 22:00 6,6 C 82 % 1023,8 hPa 0,0 l/m 0,0 km/h NO 3,8 C 6,6 C 0,0 km/h
15.03.2012 23:00 6,6 C 81 % 1023,8 hPa 0,0 l/m 5,2 km/h NO 3,6 C 6,6 C 2,9 km/h
16.03.2012 00:00 5,2 C 82 % 1023,9 hPa 0,0 l/m 0,0 km/h NO 2,4 C 5,2 C 0,0 km/h
16.03.2012 01:00 3,9 C 84 % 1023,7 hPa 0,0 l/m 0,0 km/h NO 1,4 C 3,9 C 0,0 km/h
16.03.2012 02:00 4,1 C 84 % 1023,5 hPa 0,0 l/m 0,0 km/h NO 1,6 C 4,1 C 0,0 km/h
16.03.2012 03:00 3,6 C 85 % 1022,9 hPa 0,0 l/m 0,0 km/h NO 1,3 C 3,6 C 0,0 km/h
16.03.2012 04:00 2,7 C 84 % 1022,6 hPa 0,0 l/m 0,0 km/h O-NO 0,3 C 2,7 C 0,0 km/h
16.03.2012 05:00 2,1 C 84 % 1022,5 hPa 0,0 l/m 0,0 km/h SO -0,3 C 2,1 C 0,0 km/h
16.03.2012 06:00 1,3 C 85 % 1022,7 hPa 0,0 l/m 0,0 km/h N-NO -0,9 C 1,3 C 0,0 km/h
16.03.2012 07:00 1,8 C 85 % 1022,8 hPa 0,0 l/m 0,0 km/h N-NO -0,4 C 1,8 C 0,0 km/h
16.03.2012 08:00 7,4 C 77 % 1022,9 hPa 0,0 l/m 0,0 km/h O-SO 3,6 C 7,4 C 0,0 km/h
16.03.2012 09:00 14,5 C 59 % 1022,7 hPa 0,0 l/m 0,0 km/h O 6,6 C 14,5 C 0,0 km/h
16.03.2012 10:00 22,1 C 42 % 1022,6 hPa 0,0 l/m 0,0 km/h W 8,6 C 22,1 C 0,0 km/h
16.03.2012 11:00 25,1 C 33 % 1022,3 hPa 0,0 l/m 0,0 km/h SW 7,7 C 25,1 C 0,0 km/h
16.03.2012 12:00 23,1 C 32 % 1021,4 hPa 0,0 l/m 35,6 km/h S-SW 5,5 C 18,6 C 19,8 km/h
16.03.2012 13:00 23,1 C 31 % 1020,6 hPa 0,0 l/m 27,2 km/h W-SW 5,0 C 19,3 C 15,1 km/h
16.03.2012 14:00 24,6 C 28 % 1019,9 hPa 0,0 l/m 22,0 km/h W-SW 4,9 C 21,9 C 12,2 km/h
16.03.2012 15:00 27,0 C 23 % 1019,3 hPa 0,0 l/m 0,0 km/h W-SW 4,1 C 27,0 C 0,0 km/h
16.03.2012 16:00 27,6 C 22 % 1018,7 hPa 0,0 l/m 0,0 km/h W 4,0 C 27,6 C 0,0 km/h
16.03.2012 17:00 28,4 C 25 % 1018,0 hPa 0,0 l/m 0,0 km/h O-NO 6,5 C 28,4 C 0,0 km/h
16.03.2012 18:00 17,9 C 36 % 1017,9 hPa 0,0 l/m 0,0 km/h SO 2,6 C 17,9 C 0,0 km/h
16.03.2012 19:00 12,9 C 48 % 1018,2 hPa 0,0 l/m 0,0 km/h O 2,2 C 12,9 C 0,0 km/h
16.03.2012 20:00 11,2 C 54 % 1018,3 hPa 0,0 l/m 0,0 km/h O-SO 2,2 C 11,2 C 0,0 km/h
16.03.2012 21:00 10,1 C 57 % 1018,7 hPa 0,0 l/m 0,0 km/h O-SO 2,0 C 10,1 C 0,0 km/h
16.03.2012 22:00 9,3 C 60 % 1018,3 hPa 0,0 l/m 0,0 km/h NO 1,9 C 9,3 C 0,0 km/h
16.03.2012 23:00 8,1 C 63 % 1018,6 hPa 0,0 l/m 0,0 km/h O-SO 1,5 C 8,1 C 0,0 km/h
17.03.2012 00:00 7,4 C 65 % 1018,7 hPa 0,0 l/m 0,0 km/h O-NO 1,3 C 7,4 C 0,0 km/h
17.03.2012 01:00 6,4 C 69 % 1018,7 hPa 0,0 l/m 0,0 km/h NO 1,1 C 6,4 C 0,0 km/h
17.03.2012 02:00 5,6 C 71 % 1019,2 hPa 0,0 l/m 0,0 km/h O-NO 0,8 C 5,6 C 0,0 km/h
17.03.2012 03:00 5,1 C 75 % 1018,8 hPa 0,0 l/m 2,6 km/h SO 1,0 C 5,1 C 1,4 km/h
17.03.2012 04:00 4,7 C 76 % 1018,7 hPa 0,0 l/m 0,0 km/h O-SO 0,8 C 4,7 C 0,0 km/h
17.03.2012 05:00 6,1 C 72 % 1018,7 hPa 0,0 l/m 0,6 km/h SO 1,4 C 6,1 C 0,4 km/h
17.03.2012 06:00 7,1 C 64 % 1018,7 hPa 0,0 l/m 7,8 km/h NO 0,8 C 6,0 C 4,3 km/h
17.03.2012 07:00 7,1 C 68 % 1019,1 hPa 0,0 l/m 0,0 km/h S-SW 1,6 C 7,1 C 0,0 km/h
17.03.2012 08:00 13,4 C 47 % 1019,1 hPa 0,0 l/m 18,8 km/h SW 2,3 C 8,0 C 10,4 km/h
17.03.2012 09:00 17,5 C 34 % 1018,9 hPa 0,0 l/m 24,0 km/h W-SW 1,5 C 12,2 C 13,3 km/h
17.03.2012 10:00 18,6 C 32 % 1019,0 hPa 0,0 l/m 39,5 km/h W-SW 1,6 C 11,7 C 22,0 km/h
17.03.2012 11:00 18,4 C 33 % 1018,8 hPa 0,0 l/m 30,5 km/h S-SW 1,8 C 12,4 C 16,9 km/h
17.03.2012 12:00 18,4 C 33 % 1018,2 hPa 0,0 l/m 23,3 km/h W-SW 1,8 C 13,5 C 13,0 km/h
17.03.2012 13:00 16,3 C 37 % 1017,8 hPa 0,0 l/m 24,6 km/h S-SW 1,6 C 10,4 C 13,7 km/h
17.03.2012 14:00 16,0 C 38 % 1017,0 hPa 0,0 l/m 28,5 km/h SW 1,7 C 9,3 C 15,8 km/h
17.03.2012 15:00 21,5 C 30 % 1016,3 hPa 0,0 l/m 3,2 km/h S-SW 3,2 C 21,5 C 1,8 km/h
17.03.2012 16:00 19,6 C 33 % 1015,6 hPa 0,0 l/m 1,9 km/h S 2,9 C 19,6 C 1,1 km/h
17.03.2012 17:00 20,6 C 31 % 1014,8 hPa 0,0 l/m 4,5 km/h S 2,9 C 20,6 C 2,5 km/h
17.03.2012 18:00 14,6 C 42 % 1015,3 hPa 0,0 l/m 0,0 km/h O-NO 1,8 C 14,6 C 0,0 km/h
17.03.2012 19:00 11,2 C 52 % 1015,4 hPa 0,0 l/m 0,0 km/h NO 1,7 C 11,2 C 0,0 km/h
17.03.2012 20:00 9,3 C 60 % 1015,3 hPa 0,0 l/m 0,0 km/h SO 1,9 C 9,3 C 0,0 km/h
17.03.2012 21:00 9,2 C 61 % 1015,0 hPa 0,0 l/m 21,4 km/h NO 2,1 C 1,8 C 11,9 km/h
17.03.2012 22:00 9,1 C 60 % 1014,9 hPa 0,0 l/m 0,0 km/h O-SO 1,8 C 9,1 C 0,0 km/h
17.03.2012 23:00 8,3 C 63 % 1015,0 hPa 0,0 l/m 0,6 km/h O-NO 1,7 C 8,3 C 0,4 km/h
18.03.2012 00:00 6,4 C 70 % 1014,6 hPa 0,0 l/m 0,0 km/h O-NO 1,3 C 6,4 C 0,0 km/h
18.03.2012 01:00 6,4 C 72 % 1015,1 hPa 0,0 l/m 0,0 km/h SO 1,7 C 6,4 C 0,0 km/h
18.03.2012 02:00 6,6 C 72 % 1014,6 hPa 0,0 l/m 0,0 km/h SO 1,9 C 6,6 C 0,0 km/h
18.03.2012 03:00 6,5 C 74 % 1014,3 hPa 0,0 l/m 0,0 km/h SW 2,2 C 6,5 C 0,0 km/h
18.03.2012 04:00 11,2 C 64 % 1014,2 hPa 0,0 l/m 14,9 km/h S-SW 4,6 C 6,6 C 8,3 km/h
18.03.2012 05:00 11,3 C 62 % 1014,3 hPa 0,0 l/m 3,2 km/h S-SW 4,3 C 11,3 C 1,8 km/h
18.03.2012 06:00 11,9 C 61 % 1014,0 hPa 0,0 l/m 1,9 km/h SW 4,6 C 11,9 C 1,1 km/h
18.03.2012 07:00 11,9 C 65 % 1013,9 hPa 0,0 l/m 24,6 km/h S-SW 5,5 C 4,5 C 13,7 km/h
18.03.2012 08:00 12,6 C 65 % 1013,9 hPa 0,0 l/m 20,7 km/h W-SW 6,2 C 6,4 C 11,5 km/h
18.03.2012 09:00 11,8 C 67 % 1014,8 hPa 0,0 l/m 21,4 km/h SW 5,9 C 5,2 C 11,9 km/h
18.03.2012 10:00 11,3 C 67 % 1015,4 hPa 0,0 l/m 20,1 km/h W 5,4 C 4,9 C 11,2 km/h
18.03.2012 11:00 10,2 C 73 % 1015,9 hPa 0,0 l/m 3,9 km/h NW 5,6 C 10,2 C 2,2 km/h
18.03.2012 12:00 8,1 C 82 % 1017,3 hPa 0,4 l/m 0,0 km/h SO 5,2 C 8,1 C 0,0 km/h
18.03.2012 13:00 8,7 C 83 % 1016,0 hPa 0,7 l/m 9,7 km/h W-SW 6,0 C 6,3 C 5,4 km/h
18.03.2012 14:00 9,0 C 81 % 1016,2 hPa 0,0 l/m 23,3 km/h SW 5,9 C 1,0 C 13,0 km/h
18.03.2012 15:00 7,2 C 85 % 1016,4 hPa 0,4 l/m 25,9 km/h S-SW 4,9 C -2,2 C 14,4 km/h
18.03.2012 16:00 6,5 C 85 % 1016,5 hPa 0,4 l/m 1,3 km/h W 4,2 C 6,5 C 0,7 km/h
18.03.2012 17:00 6,2 C 85 % 1017,6 hPa 0,4 l/m 12,3 km/h S-SO 3,9 C 2,0 C 6,8 km/h
18.03.2012 18:00 5,9 C 84 % 1018,1 hPa 0,4 l/m 12,3 km/h SO 3,4 C 1,6 C 6,8 km/h
18.03.2012 19:00 6,0 C 84 % 1018,7 hPa 0,0 l/m 0,0 km/h S 3,5 C 6,0 C 0,0 km/h
18.03.2012 20:00 6,3 C 82 % 1019,8 hPa 0,0 l/m 0,0 km/h O-NO 3,5 C 6,3 C 0,0 km/h
18.03.2012 21:00 6,3 C 82 % 1019,8 hPa 0,0 l/m 0,0 km/h NO 3,5 C 6,3 C 0,0 km/h
18.03.2012 22:00 5,4 C 85 % 1020,2 hPa 0,0 l/m 0,0 km/h NO 3,1 C 5,4 C 0,0 km/h
18.03.2012 23:00 5,2 C 85 % 1020,4 hPa 0,4 l/m 0,0 km/h N-NO 2,9 C 5,2 C 0,0 km/h
Min-Datum _ 15.03.12 16.03.12 18.03.12 - 12.03.12 - 15.03.12 12.03.12 12.03.12
_ Min-Zeit 06:30 16:30 07:30 - 00:30 - 06:30 22:30 00:30
Minimum _ -0,5 C 22 % 1013,9 hPa - 0,0 km/h - -2,7 C -2,9 C 0,0 km/h
Max-Datum _ 16.03.12 13.03.12 12.03.12 18.03.12 17.03.12 - 15.03.12 16.03.12 17.03.12
_ Max-Zeit 17:30 03:30 01:30 13:30 10:30 - 14:30 17:30 10:30
Maximum _ 28,4 C 86 % 1030,3 hPa 0,7 l/m 39,5 km/h
W-SW
- 9,9 C 28,4 C 22,0 km/h
W-SW
Durchschnitt _ 10,2 C 67 % 1023,5 hPa #2,8 l/m 4,1 km/h NO 3,5 C 9,3 C 2,3 km/h
www.sexauwetter.de